sensor_id;sensor_type;location;lat;lon;timestamp;P1;durP1;ratioP1;P2;durP2;ratioP2
67164;SDS011;54093;50.014;19.984;2023-05-17T00:08:35;3.65;;;3.45;;
67164;SDS011;54093;50.014;19.984;2023-05-17T00:17:56;3.97;;;3.78;;
67164;SDS011;54093;50.014;19.984;2023-05-17T00:27:17;3.97;;;3.67;;
67164;SDS011;54093;50.014;19.984;2023-05-17T00:36:38;8.73;;;5.28;;
67164;SDS011;54093;50.014;19.984;2023-05-17T00:45:59;3.50;;;3.30;;
67164;SDS011;54093;50.014;19.984;2023-05-17T00:55:20;4.15;;;3.92;;
67164;SDS011;54093;50.014;19.984;2023-05-17T01:04:41;4.05;;;3.85;;
67164;SDS011;54093;50.014;19.984;2023-05-17T01:33:49;3.60;;;3.40;;
67164;SDS011;54093;50.014;19.984;2023-05-17T01:43:16;3.63;;;3.42;;
67164;SDS011;54093;50.014;19.984;2023-05-17T02:02:03;3.10;;;3.00;;
67164;SDS011;54093;50.014;19.984;2023-05-17T02:11:29;3.63;;;3.33;;
67164;SDS011;54093;50.014;19.984;2023-05-17T02:20:50;3.00;;;2.90;;
67164;SDS011;54093;50.014;19.984;2023-05-17T02:30:11;3.42;;;2.72;;
67164;SDS011;54093;50.014;19.984;2023-05-17T02:39:33;7.82;;;2.30;;
67164;SDS011;54093;50.014;19.984;2023-05-17T02:48:54;2.83;;;2.72;;
67164;SDS011;54093;50.014;19.984;2023-05-17T02:58:15;2.17;;;2.08;;
67164;SDS011;54093;50.014;19.984;2023-05-17T03:07:36;2.00;;;2.00;;
67164;SDS011;54093;50.014;19.984;2023-05-17T03:16:57;1.50;;;1.50;;
67164;SDS011;54093;50.014;19.984;2023-05-17T03:26:18;1.40;;;1.40;;
67164;SDS011;54093;50.014;19.984;2023-05-17T03:35:39;1.50;;;1.50;;
67164;SDS011;54093;50.014;19.984;2023-05-17T03:45:00;1.30;;;1.30;;
67164;SDS011;54093;50.014;19.984;2023-05-17T03:54:21;1.50;;;1.40;;
67164;SDS011;54093;50.014;19.984;2023-05-17T04:03:42;1.40;;;1.30;;
67164;SDS011;54093;50.014;19.984;2023-05-17T04:13:03;1.42;;;1.35;;
67164;SDS011;54093;50.014;19.984;2023-05-17T04:22:24;1.30;;;1.30;;
67164;SDS011;54093;50.014;19.984;2023-05-17T04:31:45;2.58;;;2.38;;
67164;SDS011;54093;50.014;19.984;2023-05-17T04:41:08;3.13;;;1.60;;
67164;SDS011;54093;50.014;19.984;2023-05-17T04:50:29;1.38;;;1.30;;
67164;SDS011;54093;50.014;19.984;2023-05-17T04:59:50;1.40;;;1.40;;
67164;SDS011;54093;50.014;19.984;2023-05-17T05:09:11;1.23;;;1.23;;
67164;SDS011;54093;50.014;19.984;2023-05-17T05:18:32;1.25;;;1.25;;
67164;SDS011;54093;50.014;19.984;2023-05-17T05:27:53;1.13;;;1.13;;
67164;SDS011;54093;50.014;19.984;2023-05-17T05:37:13;3.22;;;1.58;;
67164;SDS011;54093;50.014;19.984;2023-05-17T05:46:34;1.52;;;1.52;;
67164;SDS011;54093;50.014;19.984;2023-05-17T05:55:57;1.13;;;1.13;;
67164;SDS011;54093;50.014;19.984;2023-05-17T06:05:18;1.10;;;1.10;;
67164;SDS011;54093;50.014;19.984;2023-05-17T06:14:39;1.30;;;1.30;;
67164;SDS011;54093;50.014;19.984;2023-05-17T06:24:00;1.42;;;1.42;;
67164;SDS011;54093;50.014;19.984;2023-05-17T06:33:21;1.20;;;1.20;;
67164;SDS011;54093;50.014;19.984;2023-05-17T06:42:41;0.85;;;0.85;;
67164;SDS011;54093;50.014;19.984;2023-05-17T06:52:03;1.20;;;1.20;;
67164;SDS011;54093;50.014;19.984;2023-05-17T07:01:25;1.30;;;1.20;;
67164;SDS011;54093;50.014;19.984;2023-05-17T07:10:49;3.45;;;1.20;;
67164;SDS011;54093;50.014;19.984;2023-05-17T07:20:11;1.00;;;1.00;;
67164;SDS011;54093;50.014;19.984;2023-05-17T07:29:32;1.05;;;0.98;;
67164;SDS011;54093;50.014;19.984;2023-05-17T07:38:53;1.38;;;1.33;;
67164;SDS011;54093;50.014;19.984;2023-05-17T07:48:14;1.13;;;1.13;;
67164;SDS011;54093;50.014;19.984;2023-05-17T07:57:35;1.17;;;1.17;;
67164;SDS011;54093;50.014;19.984;2023-05-17T08:06:56;1.17;;;1.15;;
67164;SDS011;54093;50.014;19.984;2023-05-17T08:16:17;1.00;;;1.00;;
67164;SDS011;54093;50.014;19.984;2023-05-17T08:25:38;4.78;;;1.20;;
67164;SDS011;54093;50.014;19.984;2023-05-17T08:35:03;1.13;;;1.13;;
67164;SDS011;54093;50.014;19.984;2023-05-17T08:44:25;1.20;;;1.10;;
67164;SDS011;54093;50.014;19.984;2023-05-17T08:53:47;1.25;;;1.25;;
67164;SDS011;54093;50.014;19.984;2023-05-17T09:03:10;1.20;;;1.20;;
67164;SDS011;54093;50.014;19.984;2023-05-17T09:12:37;1.30;;;1.30;;
67164;SDS011;54093;50.014;19.984;2023-05-17T09:22:01;1.50;;;1.50;;
67164;SDS011;54093;50.014;19.984;2023-05-17T09:31:24;1.58;;;1.58;;
67164;SDS011;54093;50.014;19.984;2023-05-17T09:40:45;5.18;;;1.60;;
67164;SDS011;54093;50.014;19.984;2023-05-17T09:50:07;2.15;;;1.55;;
67164;SDS011;54093;50.014;19.984;2023-05-17T09:59:37;1.40;;;1.38;;
67164;SDS011;54093;50.014;19.984;2023-05-17T10:08:58;1.50;;;1.50;;
67164;SDS011;54093;50.014;19.984;2023-05-17T10:18:21;1.70;;;1.60;;
67164;SDS011;54093;50.014;19.984;2023-05-17T10:27:44;2.50;;;2.40;;
67164;SDS011;54093;50.014;19.984;2023-05-17T10:37:06;2.10;;;2.00;;
67164;SDS011;54093;50.014;19.984;2023-05-17T10:46:28;1.70;;;1.70;;
67164;SDS011;54093;50.014;19.984;2023-05-17T10:55:50;2.20;;;2.10;;
67164;SDS011;54093;50.014;19.984;2023-05-17T11:05:21;2.42;;;2.28;;
67164;SDS011;54093;50.014;19.984;2023-05-17T11:24:05;1.90;;;1.80;;
67164;SDS011;54093;50.014;19.984;2023-05-17T11:33:38;2.50;;;2.40;;
67164;SDS011;54093;50.014;19.984;2023-05-17T11:43:12;3.23;;;3.03;;
67164;SDS011;54093;50.014;19.984;2023-05-17T11:52:38;2.92;;;2.72;;
67164;SDS011;54093;50.014;19.984;2023-05-17T12:02:00;2.28;;;2.17;;
67164;SDS011;54093;50.014;19.984;2023-05-17T12:11:21;2.95;;;2.72;;
67164;SDS011;54093;50.014;19.984;2023-05-17T12:20:54;2.75;;;2.58;;
67164;SDS011;54093;50.014;19.984;2023-05-17T12:30:16;2.88;;;2.67;;
67164;SDS011;54093;50.014;19.984;2023-05-17T12:39:38;2.40;;;2.20;;
67164;SDS011;54093;50.014;19.984;2023-05-17T12:49:00;2.70;;;1.90;;
67164;SDS011;54093;50.014;19.984;2023-05-17T12:58:25;2.28;;;2.17;;
67164;SDS011;54093;50.014;19.984;2023-05-17T13:07:46;2.15;;;2.05;;
67164;SDS011;54093;50.014;19.984;2023-05-17T13:26:56;1.63;;;1.52;;
67164;SDS011;54093;50.014;19.984;2023-05-17T13:36:17;1.90;;;1.80;;
67164;SDS011;54093;50.014;19.984;2023-05-17T13:45:38;2.00;;;1.90;;
67164;SDS011;54093;50.014;19.984;2023-05-17T13:54:58;2.25;;;2.10;;
67164;SDS011;54093;50.014;19.984;2023-05-17T14:04:20;2.55;;;2.22;;
67164;SDS011;54093;50.014;19.984;2023-05-17T14:13:41;2.63;;;2.42;;
67164;SDS011;54093;50.014;19.984;2023-05-17T14:23:03;2.80;;;2.70;;
67164;SDS011;54093;50.014;19.984;2023-05-17T14:32:24;2.65;;;2.40;;
67164;SDS011;54093;50.014;19.984;2023-05-17T14:41:45;2.38;;;2.17;;
67164;SDS011;54093;50.014;19.984;2023-05-17T14:51:08;2.97;;;2.75;;
67164;SDS011;54093;50.014;19.984;2023-05-17T15:00:29;3.03;;;2.83;;
67164;SDS011;54093;50.014;19.984;2023-05-17T15:09:50;4.32;;;3.05;;
67164;SDS011;54093;50.014;19.984;2023-05-17T15:19:11;2.30;;;2.20;;
67164;SDS011;54093;50.014;19.984;2023-05-17T15:28:32;4.50;;;3.13;;
67164;SDS011;54093;50.014;19.984;2023-05-17T15:37:55;6.32;;;3.50;;
67164;SDS011;54093;50.014;19.984;2023-05-17T15:47:19;4.32;;;2.92;;
67164;SDS011;54093;50.014;19.984;2023-05-17T15:56:42;3.78;;;3.38;;
67164;SDS011;54093;50.014;19.984;2023-05-17T16:06:03;3.75;;;2.83;;
67164;SDS011;54093;50.014;19.984;2023-05-17T16:15:25;4.32;;;2.78;;
67164;SDS011;54093;50.014;19.984;2023-05-17T16:24:46;3.03;;;2.72;;
67164;SDS011;54093;50.014;19.984;2023-05-17T16:34:07;3.03;;;2.80;;
67164;SDS011;54093;50.014;19.984;2023-05-17T16:43:29;3.45;;;2.92;;
67164;SDS011;54093;50.014;19.984;2023-05-17T16:52:50;3.10;;;2.90;;
67164;SDS011;54093;50.014;19.984;2023-05-17T17:02:11;3.63;;;3.40;;
67164;SDS011;54093;50.014;19.984;2023-05-17T17:11:33;3.85;;;3.55;;
67164;SDS011;54093;50.014;19.984;2023-05-17T17:20:53;4.80;;;4.30;;
67164;SDS011;54093;50.014;19.984;2023-05-17T17:30:14;5.32;;;4.82;;
67164;SDS011;54093;50.014;19.984;2023-05-17T17:39:36;6.47;;;5.88;;
67164;SDS011;54093;50.014;19.984;2023-05-17T17:48:57;9.85;;;6.25;;
67164;SDS011;54093;50.014;19.984;2023-05-17T17:58:18;6.57;;;5.97;;
67164;SDS011;54093;50.014;19.984;2023-05-17T18:07:38;15.07;;;6.80;;
67164;SDS011;54093;50.014;19.984;2023-05-17T18:17:00;8.85;;;6.40;;
67164;SDS011;54093;50.014;19.984;2023-05-17T18:26:21;7.25;;;6.65;;
67164;SDS011;54093;50.014;19.984;2023-05-17T18:35:42;7.68;;;6.97;;
67164;SDS011;54093;50.014;19.984;2023-05-17T18:45:05;9.30;;;7.18;;
67164;SDS011;54093;50.014;19.984;2023-05-17T18:54:27;6.57;;;5.97;;
67164;SDS011;54093;50.014;19.984;2023-05-17T19:03:48;8.07;;;7.32;;
67164;SDS011;54093;50.014;19.984;2023-05-17T19:13:16;11.50;;;6.85;;
67164;SDS011;54093;50.014;19.984;2023-05-17T19:22:37;7.80;;;6.80;;
67164;SDS011;54093;50.014;19.984;2023-05-17T19:31:57;8.02;;;7.10;;
67164;SDS011;54093;50.014;19.984;2023-05-17T19:41:18;10.57;;;6.63;;
67164;SDS011;54093;50.014;19.984;2023-05-17T19:50:39;11.10;;;8.05;;
67164;SDS011;54093;50.014;19.984;2023-05-17T20:00:00;8.55;;;7.63;;
67164;SDS011;54093;50.014;19.984;2023-05-17T20:09:23;9.05;;;7.72;;
67164;SDS011;54093;50.014;19.984;2023-05-17T20:18:45;12.63;;;8.95;;
67164;SDS011;54093;50.014;19.984;2023-05-17T20:28:06;13.30;;;8.80;;
67164;SDS011;54093;50.014;19.984;2023-05-17T20:37:26;14.65;;;8.68;;
67164;SDS011;54093;50.014;19.984;2023-05-17T20:46:47;18.70;;;11.50;;
67164;SDS011;54093;50.014;19.984;2023-05-17T20:56:08;12.52;;;11.15;;
67164;SDS011;54093;50.014;19.984;2023-05-17T21:05:29;11.68;;;9.30;;
67164;SDS011;54093;50.014;19.984;2023-05-17T21:14:55;28.90;;;14.33;;
67164;SDS011;54093;50.014;19.984;2023-05-17T21:24:16;14.20;;;11.13;;
67164;SDS011;54093;50.014;19.984;2023-05-17T21:33:37;18.45;;;13.20;;
67164;SDS011;54093;50.014;19.984;2023-05-17T21:42:58;15.90;;;9.63;;
67164;SDS011;54093;50.014;19.984;2023-05-17T21:52:18;11.75;;;10.00;;
67164;SDS011;54093;50.014;19.984;2023-05-17T22:01:39;12.48;;;10.63;;
67164;SDS011;54093;50.014;19.984;2023-05-17T22:11:00;19.88;;;11.68;;
67164;SDS011;54093;50.014;19.984;2023-05-17T22:20:21;19.58;;;12.32;;
67164;SDS011;54093;50.014;19.984;2023-05-17T22:29:46;15.13;;;9.85;;
67164;SDS011;54093;50.014;19.984;2023-05-17T22:39:07;11.25;;;9.20;;
67164;SDS011;54093;50.014;19.984;2023-05-17T22:48:29;17.42;;;9.65;;
67164;SDS011;54093;50.014;19.984;2023-05-17T22:57:56;11.55;;;9.65;;
67164;SDS011;54093;50.014;19.984;2023-05-17T23:07:17;13.43;;;9.15;;
67164;SDS011;54093;50.014;19.984;2023-05-17T23:16:38;12.90;;;8.25;;
67164;SDS011;54093;50.014;19.984;2023-05-17T23:25:59;17.02;;;10.88;;
67164;SDS011;54093;50.014;19.984;2023-05-17T23:35:20;14.73;;;9.32;;
67164;SDS011;54093;50.014;19.984;2023-05-17T23:44:43;13.95;;;9.23;;
67164;SDS011;54093;50.014;19.984;2023-05-17T23:54:05;10.05;;;8.38;;
